Decoded Metar for UTDL (KHUDZHAND in RUSSIA) (IATA:N/A) | Meteo·Mobile Aviation Weather
aviador You're here:

UTDL Decoded Metar

KHUDZHAND in RUSSIA
Report Time2019-07-21 16:30:00
UTC Time2019-07-21 17:08:53
Flight Rules vfr VFR
Wind060° at 4 kt
W.Decomp.*RWY 08: 3.7 kt HW 1.6 kt LCW
Visibility9999 m
Phenomena:N/A
Clouds:Few 086 Hf
Expected CloudBase > 8,400 ft AGL from Temp-Dew spread
CeilingNone
Temp32°C (ISA +20)
Dew Point11°C (27% RH)
Heat Index30.5°C
AAT30.8°C
QNH1007 hPa
Density Alt4,091 ft
Elevation1,450 ft
Report Wrong Elevation
Raw Report
UTDL 211630Z 06002MPS 9999 FEW086 32/11 Q1007 R26/CLRD70 NOSIG RMK
QFE717/0957=

Extra information for UTDL:More info

Metar Taf Metar & Taf Last 4 Metars F.Rules Stats Wind Profile Meteogram Temp Stats Airport Information Weather charts Add Link Nearby VenuesMetar ALERT Operation Metar Decoded Social comments